Time;durP1;ratioP1;P1;durP2;ratioP2;P2;SDS_P1;SDS_P2;PMS_P1;PMS_P2;Temp;Humidity;BMP_temperature;BMP_pressure;BME280_temperature;BME280_humidity;BME280_pressure;Samples;Min_cycle;Max_cycle;Signal;HPM_P1;HPM_P2
2021/06/02 00:04:45;;;;;;;7.67;2.90;;;;;;;15.55;51.13;96053.56;5017677;28;20457;-90
2021/06/02 02:26:03;;;;;;;4.10;3.73;;;;;;;13.57;57.70;96034.41;5041634;28;20455;-90
2021/06/02 02:28:51;;;;;;;5.90;3.17;;;;;;;13.61;57.65;96036.69;5022057;28;20466;-92
2021/06/02 02:31:44;;;;;;;5.17;3.80;;;;;;;13.64;57.54;96039.00;5023501;28;20420;-90
2021/06/02 02:34:24;;;;;;;5.57;3.33;;;;;;;13.63;57.66;96039.53;5008886;28;20457;-92
2021/06/02 02:36:55;;;;;;;5.30;3.43;;;;;;;13.64;57.60;96046.41;5020970;28;20883;-91
2021/06/02 02:39:28;;;;;;;4.17;3.80;;;;;;;13.63;57.03;96051.09;5020011;28;20479;-91
2021/06/02 02:42:07;;;;;;;4.70;3.10;;;;;;;13.60;57.67;96048.81;5023854;28;20427;-90
2021/06/02 02:44:49;;;;;;;5.50;3.37;;;;;;;13.55;58.04;96053.25;5020688;28;20450;-90
2021/06/02 02:47:19;;;;;;;3.97;2.90;;;;;;;13.56;57.80;96057.38;5021539;28;20511;-90
2021/06/02 02:49:58;;;;;;;4.07;3.40;;;;;;;13.47;58.29;96049.94;5020038;28;20547;-90
2021/06/02 02:52:37;;;;;;;6.03;3.30;;;;;;;13.33;59.05;96060.47;5020889;28;20497;-90
2021/06/02 02:55:09;;;;;;;5.83;3.87;;;;;;;13.27;58.91;96048.44;5020767;28;20468;-90
2021/06/02 02:57:43;;;;;;;5.83;3.70;;;;;;;13.30;59.22;96047.31;5021058;28;20426;-91
2021/06/02 03:00:13;;;;;;;5.37;3.10;;;;;;;13.37;58.38;96057.34;5020566;28;20438;-90
2021/06/02 03:02:45;;;;;;;5.77;3.47;;;;;;;13.48;58.15;96053.34;5020527;28;20468;-91
2021/06/02 03:05:15;;;;;;;5.10;3.00;;;;;;;13.45;58.16;96057.91;5020439;28;20480;-91
2021/06/02 03:07:48;;;;;;;5.07;3.73;;;;;;;13.49;57.86;96054.78;5020949;28;20551;-91
2021/06/02 03:10:15;;;;;;;3.57;3.00;;;;;;;13.64;57.13;96062.66;5021400;28;20439;-91
2021/06/02 03:12:55;;;;;;;4.60;3.10;;;;;;;13.62;57.28;96054.41;5021130;28;20490;-91
2021/06/02 03:15:38;;;;;;;5.10;3.70;;;;;;;13.60;57.45;96063.09;5021510;28;20463;-92
2021/06/02 03:18:27;;;;;;;6.40;3.33;;;;;;;13.63;56.81;96069.38;5021569;28;20430;-92
2021/06/02 03:21:06;;;;;;;7.87;3.27;;;;;;;13.61;57.02;96064.53;5023109;28;20423;-93
2021/06/02 03:23:48;;;;;;;5.30;3.30;;;;;;;13.64;56.75;96076.22;5023990;28;20512;-90
2021/06/02 03:26:17;;;;;;;5.80;3.50;;;;;;;13.63;57.32;96070.09;5021955;28;20467;-90
2021/06/02 03:28:57;;;;;;;4.93;3.37;;;;;;;13.47;58.06;96065.50;5021222;28;20538;-90
2021/06/02 03:31:41;;;;;;;7.37;3.60;;;;;;;13.40;58.47;96072.47;5022030;28;20415;-90
2021/06/02 03:34:21;;;;;;;4.20;3.57;;;;;;;13.24;59.28;96065.84;5036238;28;20456;-93
2021/06/02 03:37:04;;;;;;;4.70;3.70;;;;;;;13.17;59.48;96078.22;5040154;28;20519;-91
2021/06/02 03:39:47;;;;;;;5.83;4.67;;;;;;;13.21;60.05;96072.38;5039997;28;20495;-92
2021/06/02 03:42:24;;;;;;;3.73;3.27;;;;;;;13.16;59.74;96076.06;5040057;28;20436;-94
2021/06/02 03:45:04;;;;;;;6.73;3.73;;;;;;;13.44;59.60;96078.16;5039888;28;20456;-91
2021/06/02 03:47:45;;;;;;;6.33;3.13;;;;;;;13.82;57.48;96075.56;5036976;28;20421;-90
2021/06/02 03:50:17;;;;;;;7.43;3.97;;;;;;;14.28;56.66;96078.16;5021048;28;20466;-91
2021/06/02 03:53:11;;;;;;;4.70;3.80;;;;;;;14.92;54.10;96081.97;5021667;28;20827;-90
2021/06/02 03:55:44;;;;;;;3.30;3.00;;;;;;;15.44;52.67;96086.81;5020780;28;20439;-91
2021/06/02 03:58:24;;;;;;;4.73;3.70;;;;;;;15.93;51.66;96099.59;5020076;28;20476;-92
2021/06/02 04:01:03;;;;;;;6.20;3.83;;;;;;;16.44;50.17;96089.22;5020434;28;20527;-92
2021/06/02 04:03:47;;;;;;;3.90;2.73;;;;;;;16.80;48.38;96098.94;5031078;28;20388;-91
2021/06/02 04:06:20;;;;;;;3.87;3.53;;;;;;;17.11;48.36;96099.47;5039577;28;20406;-90
2021/06/02 04:08:57;;;;;;;5.20;3.33;;;;;;;17.40;46.89;96099.88;5039177;28;20535;-91
2021/06/02 04:11:35;;;;;;;4.73;3.40;;;;;;;17.59;46.26;96091.47;5039458;28;20444;-91
2021/06/02 04:14:04;;;;;;;5.97;3.57;;;;;;;17.70;46.29;96098.22;5033727;28;20460;-93
2021/06/02 04:16:32;;;;;;;7.57;3.80;;;;;;;18.20;45.13;96108.59;5022131;28;20825;-92
2021/06/02 04:19:03;;;;;;;4.07;3.10;;;;;;;18.73;44.39;96106.06;5021208;28;20519;-92
2021/06/02 04:21:31;;;;;;;5.53;3.70;;;;;;;19.11;42.97;96100.63;5020704;28;20908;-92
2021/06/02 04:23:59;;;;;;;4.73;3.40;;;;;;;19.30;42.41;96099.53;5021164;28;20951;-93
2021/06/02 04:26:29;;;;;;;4.63;3.70;;;;;;;19.80;41.40;96101.44;5021731;28;20519;-93
2021/06/02 04:28:56;;;;;;;5.37;3.70;;;;;;;20.10;40.86;96108.44;5020465;28;20563;-92
2021/06/02 04:31:24;;;;;;;6.80;2.93;;;;;;;20.21;41.02;96115.09;5021220;28;20526;-92
2021/06/02 04:33:54;;;;;;;7.10;3.90;;;;;;;20.15;40.42;96110.03;5020433;28;20524;-91
2021/06/02 04:36:23;;;;;;;7.90;4.07;;;;;;;20.29;40.94;96108.03;5026094;28;20428;-91
2021/06/02 04:38:51;;;;;;;6.90;3.90;;;;;;;20.42;40.70;96116.81;5020306;28;20443;-91
2021/06/02 04:41:21;;;;;;;6.03;4.10;;;;;;;21.10;38.68;96125.53;5020584;28;20468;-91
2021/06/02 04:43:49;;;;;;;5.40;3.97;;;;;;;20.98;39.28;96130.44;5020284;28;20456;-91
2021/06/02 04:46:18;;;;;;;5.17;3.30;;;;;;;21.07;39.68;96129.50;5024105;28;20448;-91
2021/06/02 04:48:44;;;;;;;6.33;4.10;;;;;;;21.09;40.22;96131.63;5020289;28;20499;-90
2021/06/02 04:52:02;;;;;;;4.80;4.00;;;;;;;21.44;39.02;96131.84;5019262;28;20459;-91
2021/06/02 04:55:11;;;;;;;4.10;3.70;;;;;;;21.46;39.36;96129.19;5015506;28;20484;-90
2021/06/02 04:57:53;;;;;;;8.50;4.50;;;;;;;21.86;38.53;96130.94;5019913;28;20539;-91
2021/06/02 05:00:47;;;;;;;3.83;3.40;;;;;;;22.26;37.62;96131.25;5020770;28;20444;-90
2021/06/02 05:03:52;;;;;;;6.03;3.60;;;;;;;22.16;36.90;96141.81;5020017;28;20456;-90
2021/06/02 05:07:03;;;;;;;9.90;3.97;;;;;;;22.35;37.15;96144.72;5019569;28;20456;-90
2021/06/02 05:10:02;;;;;;;6.03;3.33;;;;;;;22.31;37.62;96146.56;5019140;28;20531;-90
2021/06/02 05:13:16;;;;;;;8.70;3.90;;;;;;;22.65;37.41;96159.00;5005427;28;20454;-92
2021/06/02 05:16:28;;;;;;;5.13;4.50;;;;;;;22.57;36.69;96153.16;4954750;28;20479;-92
2021/06/02 05:19:55;;;;;;;3.63;3.33;;;;;;;22.29;37.77;96158.22;5038365;28;20440;-90
2021/06/02 05:23:14;;;;;;;6.40;4.17;;;;;;;22.50;37.44;96167.28;4959621;28;20427;-90
2021/06/02 05:26:33;;;;;;;5.37;3.83;;;;;;;22.85;37.40;96159.09;4959068;28;20442;-91
2021/06/02 05:29:32;;;;;;;7.20;4.73;;;;;;;23.32;36.33;96169.84;5027409;28;20469;-90
2021/06/02 05:32:42;;;;;;;7.23;4.27;;;;;;;23.50;35.60;96167.78;5019021;28;21047;-92
2021/06/02 05:35:32;;;;;;;4.77;4.27;;;;;;;23.30;36.08;96169.78;5023861;28;20490;-90
2021/06/02 05:38:37;;;;;;;9.20;3.60;;;;;;;23.88;33.83;96171.22;5002407;28;20444;-90
2021/06/02 05:41:09;;;;;;;5.30;3.87;;;;;;;23.90;34.55;96169.22;5021115;28;20480;-91
2021/06/02 05:44:09;;;;;;;4.70;2.87;;;;;;;24.08;34.26;96166.41;5024573;28;20549;-91
2021/06/02 05:47:15;;;;;;;3.47;3.10;;;;;;;24.44;33.64;96166.97;5025128;28;20416;-92
2021/06/02 05:50:14;;;;;;;3.33;3.03;;;;;;;24.55;33.33;96163.19;5012963;28;20480;-91
2021/06/02 05:53:09;;;;;;;4.70;3.77;;;;;;;24.98;32.01;96165.28;5023646;28;20444;-90
2021/06/02 05:55:57;;;;;;;8.47;3.40;;;;;;;25.16;32.68;96159.59;5023151;28;20476;-91
2021/06/02 05:59:05;;;;;;;8.37;3.00;;;;;;;25.29;32.56;96166.91;5026822;28;20804;-91
2021/06/02 06:02:05;;;;;;;4.70;3.33;;;;;;;25.18;32.81;96163.13;5025920;28;20432;-92
2021/06/02 06:05:18;;;;;;;5.73;3.57;;;;;;;25.39;32.38;96165.16;5025844;28;20460;-92
2021/06/02 06:08:18;;;;;;;4.77;3.80;;;;;;;25.51;32.26;96176.59;5001070;28;20452;-92
2021/06/02 06:11:03;;;;;;;5.07;3.37;;;;;;;25.65;32.00;96167.28;5026082;28;20468;-92
2021/06/02 06:14:12;;;;;;;4.17;3.13;;;;;;;25.66;31.65;96169.38;5026341;28;20543;-91
2021/06/02 06:16:53;;;;;;;7.00;3.07;;;;;;;25.54;31.94;96172.53;5017514;28;20455;-91
2021/06/02 06:20:01;;;;;;;5.67;3.10;;;;;;;25.57;31.77;96165.00;5024966;28;20893;-91
2021/06/02 06:22:43;;;;;;;5.47;3.17;;;;;;;26.09;31.68;96174.06;4962548;28;20467;-92
2021/06/02 06:25:15;;;;;;;6.37;3.80;;;;;;;26.11;31.71;96171.31;5025861;28;20467;-91
2021/06/02 06:27:48;;;;;;;3.60;2.90;;;;;;;26.33;31.50;96171.22;5025050;28;20494;-92
2021/06/02 07:29:52;;;;;;;6.27;3.97;;;;;;;25.72;32.47;96168.88;5006969;28;20485;-93
2021/06/02 07:32:19;;;;;;;5.20;3.20;;;;;;;26.15;31.73;96162.44;5012210;28;20429;-93
2021/06/02 07:34:45;;;;;;;4.43;3.20;;;;;;;26.94;30.03;96174.16;5017569;28;20469;-92
2021/06/02 07:37:11;;;;;;;7.50;3.43;;;;;;;27.22;29.39;96181.72;5018842;28;20569;-92
2021/06/02 07:39:37;;;;;;;5.40;2.90;;;;;;;27.70;29.47;96184.84;5016041;28;20441;-93
2021/06/02 07:42:05;;;;;;;5.57;3.10;;;;;;;27.32;30.38;96179.16;5015467;28;20438;-91
2021/06/02 07:44:32;;;;;;;6.73;3.47;;;;;;;27.42;29.73;96185.63;5009241;28;20453;-91
2021/06/02 07:47:00;;;;;;;6.93;3.57;;;;;;;27.63;29.43;96193.03;5006358;28;20448;-91
2021/06/02 07:49:27;;;;;;;9.80;3.70;;;;;;;27.79;29.48;96189.19;5006306;28;20477;-91
2021/06/02 07:51:53;;;;;;;6.97;2.90;;;;;;;27.74;29.05;96185.66;5007394;28;20513;-91
2021/06/02 07:54:19;;;;;;;8.17;2.80;;;;;;;27.70;29.80;96195.94;5005488;28;20461;-92
2021/06/02 07:56:46;;;;;;;3.47;2.47;;;;;;;27.58;29.39;96186.00;5006483;28;20865;-91
2021/06/02 07:59:12;;;;;;;6.43;3.80;;;;;;;27.81;30.19;96183.69;5004688;28;20531;-92
2021/06/02 08:01:39;;;;;;;7.87;3.87;;;;;;;28.12;29.46;96185.72;5005164;28;20559;-93
2021/06/02 08:04:06;;;;;;;9.53;3.20;;;;;;;27.98;29.65;96185.41;5005188;28;20469;-91
2021/06/02 08:06:33;;;;;;;5.63;3.27;;;;;;;28.25;29.70;96192.22;5007588;28;20449;-93
2021/06/02 08:08:59;;;;;;;3.43;2.63;;;;;;;28.20;30.03;96194.19;5013958;28;20437;-93
2021/06/02 08:11:25;;;;;;;4.73;3.27;;;;;;;28.50;29.02;96196.84;5008444;28;20846;-93
2021/06/02 08:13:51;;;;;;;3.30;2.83;;;;;;;28.49;28.72;96189.88;5007595;28;20477;-93
2021/06/02 08:16:17;;;;;;;4.93;2.90;;;;;;;28.31;29.06;96197.88;5015163;28;20492;-91
2021/06/02 08:18:43;;;;;;;3.33;2.87;;;;;;;28.56;28.90;96199.72;5017588;28;20425;-92
2021/06/02 08:21:11;;;;;;;3.10;2.50;;;;;;;28.93;28.34;96206.59;5017719;28;20422;-91
2021/06/02 08:23:37;;;;;;;4.07;3.37;;;;;;;28.40;28.60;96200.13;5018243;28;20421;-92
2021/06/02 08:26:05;;;;;;;5.07;3.00;;;;;;;28.31;29.29;96206.91;5012895;28;20445;-93
2021/06/02 08:28:31;;;;;;;4.37;3.10;;;;;;;28.18;29.80;96196.94;5011862;28;20519;-95
2021/06/02 08:30:58;;;;;;;4.70;2.80;;;;;;;28.22;28.49;96201.88;5017105;28;20468;-95
2021/06/02 08:33:24;;;;;;;7.90;4.00;;;;;;;27.73;29.31;96206.41;5017202;28;20437;-91
2021/06/02 08:35:50;;;;;;;6.87;2.90;;;;;;;27.81;30.10;96212.16;5016966;28;20468;-91
2021/06/02 08:38:18;;;;;;;5.30;2.63;;;;;;;27.92;28.97;96205.44;5018218;28;20444;-90
2021/06/02 08:44:00;;;;;;;3.30;2.73;;;;;;;27.01;29.27;96200.66;4990914;28;20512;-92
2021/06/02 08:46:27;;;;;;;3.37;2.60;;;;;;;26.68;28.57;96203.25;5006218;28;20528;-93
2021/06/02 08:48:53;;;;;;;3.73;2.40;;;;;;;26.63;30.35;96200.38;5006162;28;20569;-91
2021/06/02 08:51:20;;;;;;;7.20;2.60;;;;;;;26.40;31.05;96195.66;5002471;28;20461;-91
2021/06/02 08:53:48;;;;;;;4.03;2.60;;;;;;;26.30;30.03;96200.91;5004782;28;20453;-92
2021/06/02 08:56:16;;;;;;;2.70;2.40;;;;;;;26.32;29.86;96195.44;5003788;28;20554;-93
2021/06/02 08:58:42;;;;;;;3.43;2.80;;;;;;;26.22;29.78;96203.47;5007374;28;20480;-92
2021/06/02 09:01:09;;;;;;;3.73;2.80;;;;;;;25.94;29.36;96205.44;5007266;28;20536;-91
2021/06/02 09:03:59;;;;;;;11.10;2.60;;;;;;;25.76;30.11;96196.63;5006804;28;20453;-90
2021/06/02 09:10:12;;;;;;;4.40;2.83;;;;;;;25.56;27.07;96205.75;4947769;29;20549;-91
2021/06/02 09:12:39;;;;;;;7.10;6.07;;;;;;;25.46;27.41;96199.91;4961169;28;20479;-91
2021/06/02 09:15:08;;;;;;;75.83;42.50;;;;;;;25.51;29.03;96204.22;4998584;28;20476;-92
2021/06/02 09:17:48;;;;;;;8.63;6.10;;;;;;;25.60;29.82;96201.69;5006107;28;20437;-94
2021/06/02 09:20:31;;;;;;;3.80;2.30;;;;;;;25.72;28.93;96202.75;5003003;28;20472;-93
2021/06/02 09:22:58;;;;;;;5.23;3.67;;;;;;;25.71;29.65;96206.16;5001448;28;20429;-91
2021/06/02 09:25:25;;;;;;;3.00;2.73;;;;;;;25.64;29.43;96210.09;5000902;28;20481;-91
2021/06/02 09:27:55;;;;;;;4.00;2.70;;;;;;;25.31;29.72;96205.66;5002457;28;20476;-92
2021/06/02 09:37:06;;;;;;;4.53;2.80;;;;;;;24.46;30.94;96195.31;4945566;29;20442;-89
2021/06/02 09:39:39;;;;;;;3.60;2.50;;;;;;;24.71;30.28;96198.91;5010132;28;20433;-91
2021/06/02 09:42:19;;;;;;;8.83;3.00;;;;;;;24.40;30.60;96200.63;5013229;28;20447;-92
2021/06/02 09:45:01;;;;;;;4.77;2.90;;;;;;;24.49;30.97;96205.09;5015828;28;20505;-92
2021/06/02 09:47:41;;;;;;;3.50;2.60;;;;;;;24.68;31.05;96195.38;5012707;28;20465;-93
2021/06/02 10:06:53;;;;;;;3.60;2.73;;;;;;;24.14;32.22;96210.78;5045351;28;20494;-93
2021/06/02 10:09:22;;;;;;;3.20;2.77;;;;;;;24.03;32.02;96211.03;5049761;28;20499;-92
2021/06/02 10:12:00;;;;;;;5.93;2.87;;;;;;;24.00;31.88;96202.69;5048893;28;20431;-92
2021/06/02 10:14:26;;;;;;;5.47;2.90;;;;;;;23.93;32.83;96205.88;5042451;28;20444;-93
2021/06/02 10:16:53;;;;;;;4.70;3.03;;;;;;;24.11;31.24;96205.81;5033422;28;20506;-93
2021/06/02 10:19:36;;;;;;;3.90;2.60;;;;;;;24.13;31.84;96200.38;5031587;28;20495;-94
2021/06/02 10:22:17;;;;;;;7.20;3.13;;;;;;;24.38;31.09;96208.84;5028496;28;20471;-93
2021/06/02 10:24:43;;;;;;;4.27;2.90;;;;;;;24.16;31.56;96210.13;5025496;28;20464;-91
2021/06/02 10:27:09;;;;;;;2.40;2.20;;;;;;;24.49;30.35;96207.16;5024959;28;20535;-91
2021/06/02 10:29:36;;;;;;;4.57;2.80;;;;;;;24.59;30.39;96204.72;5025375;28;20561;-90
2021/06/02 10:32:02;;;;;;;5.20;2.60;;;;;;;24.33;30.70;96201.78;5026470;28;20439;-94
2021/06/02 10:34:28;;;;;;;5.33;2.87;;;;;;;24.33;30.88;96207.31;5025959;28;20566;-90
2021/06/02 10:36:55;;;;;;;3.80;3.00;;;;;;;24.50;30.50;96205.78;5029947;28;20436;-92
2021/06/02 10:39:24;;;;;;;5.90;2.63;;;;;;;24.75;30.12;96210.75;5028208;28;20471;-92
2021/06/02 10:41:55;;;;;;;4.60;3.10;;;;;;;24.97;29.85;96211.50;5026217;28;20456;-91
2021/06/02 10:44:23;;;;;;;4.90;2.97;;;;;;;25.14;29.72;96209.97;5026240;28;20467;-92
2021/06/02 10:46:51;;;;;;;3.97;3.17;;;;;;;24.83;30.67;96213.13;5028581;28;20498;-93
2021/06/02 10:49:26;;;;;;;3.30;2.97;;;;;;;25.15;30.61;96211.38;5025893;28;20459;-93
2021/06/02 10:51:53;;;;;;;5.93;3.17;;;;;;;24.67;30.86;96213.28;5027220;28;20452;-93
2021/06/02 10:54:28;;;;;;;5.53;2.60;;;;;;;24.95;30.16;96205.94;5029436;28;20476;-91
2021/06/02 10:57:13;;;;;;;3.40;3.10;;;;;;;24.90;30.28;96209.22;5029848;28;20451;-92
2021/06/02 10:59:40;;;;;;;2.73;2.53;;;;;;;24.97;30.52;96213.56;5032859;28;20447;-92
2021/06/02 11:02:09;;;;;;;3.47;2.83;;;;;;;24.92;30.13;96215.50;5028671;28;20945;-92
2021/06/02 11:04:37;;;;;;;5.03;3.03;;;;;;;25.18;30.20;96204.56;5029475;28;20476;-93
2021/06/02 11:10:12;;;;;;;3.50;3.17;;;;;;;25.22;29.32;96204.69;5003607;28;20484;-90
2021/06/02 11:13:18;;;;;;;3.90;2.80;;;;;;;25.20;29.48;96204.63;5028886;28;20512;-90
2021/06/02 11:15:48;;;;;;;3.73;3.37;;;;;;;25.75;28.97;96206.97;5033574;28;20499;-93
2021/06/02 11:18:19;;;;;;;5.23;3.03;;;;;;;25.82;28.77;96210.63;5039859;28;20437;-91
2021/06/02 11:20:48;;;;;;;3.67;2.47;;;;;;;25.93;28.99;96201.25;5040175;28;20435;-91
2021/06/02 11:23:16;;;;;;;10.93;3.30;;;;;;;26.25;29.22;96204.25;5039775;28;20427;-91
2021/06/02 11:39:11;;;;;;;6.50;3.60;;;;;;;25.79;28.76;96196.03;4998773;28;20470;-93
2021/06/02 11:41:41;;;;;;;6.10;3.00;;;;;;;25.78;28.71;96200.16;5000047;28;20465;-92
2021/06/02 11:44:07;;;;;;;5.47;3.73;;;;;;;25.88;28.53;96197.66;4999907;28;20458;-91
2021/06/02 12:10:23;;;;;;;3.40;3.10;;;;;;;25.62;28.93;96204.53;5014112;28;20496;-93
2021/06/02 12:12:49;;;;;;;5.47;2.77;;;;;;;25.76;29.32;96213.22;5016869;28;20444;-92
2021/06/02 12:15:18;;;;;;;3.93;3.00;;;;;;;25.83;29.01;96215.50;5016658;28;20460;-92
2021/06/02 12:17:48;;;;;;;3.40;2.60;;;;;;;25.56;29.24;96229.94;5015680;28;20421;-93
2021/06/02 12:20:17;;;;;;;6.30;3.07;;;;;;;25.45;29.09;96214.34;5014884;28;20460;-90
2021/06/02 12:22:43;;;;;;;8.30;3.30;;;;;;;25.60;29.58;96218.25;5010320;28;20437;-90
2021/06/02 12:25:13;;;;;;;6.13;2.93;;;;;;;25.74;29.25;96221.47;5005386;28;20535;-91
2021/06/02 12:27:44;;;;;;;3.10;2.73;;;;;;;25.63;28.80;96209.38;5003625;28;20522;-92
2021/06/02 12:30:13;;;;;;;4.63;2.83;;;;;;;25.72;29.71;96224.16;5004760;28;20634;-92
2021/06/02 12:32:45;;;;;;;4.23;2.87;;;;;;;25.69;29.02;96206.09;5004852;28;20441;-92
2021/06/02 12:35:29;;;;;;;2.53;2.27;;;;;;;25.94;29.36;96210.97;5004085;28;20533;-92
2021/06/02 12:38:05;;;;;;;4.30;3.30;;;;;;;26.01;28.96;96213.25;5003422;28;20520;-91
2021/06/02 12:40:31;;;;;;;4.27;3.53;;;;;;;25.68;29.16;96205.41;5005816;28;20550;-93
2021/06/02 12:42:59;;;;;;;3.50;3.20;;;;;;;25.82;29.08;96218.91;5005526;28;20480;-92
2021/06/02 12:45:29;;;;;;;2.77;2.53;;;;;;;25.74;29.38;96207.63;5004933;28;20501;-95
2021/06/02 12:47:56;;;;;;;4.40;3.27;;;;;;;25.88;28.94;96208.72;5005251;28;20425;-93
2021/06/02 12:50:44;;;;;;;4.30;2.83;;;;;;;25.30;29.19;96207.72;5002845;28;20591;-93
2021/06/02 12:53:11;;;;;;;4.77;3.43;;;;;;;25.39;30.14;96198.31;4997726;28;20505;-92
2021/06/02 12:55:39;;;;;;;9.33;2.83;;;;;;;25.54;29.30;96204.97;5004857;28;20525;-93
2021/06/02 12:58:12;;;;;;;6.30;2.30;;;;;;;25.70;29.52;96204.75;5005356;28;20479;-94
2021/06/02 13:00:40;;;;;;;6.67;2.80;;;;;;;25.91;29.37;96212.97;5003224;28;20945;-93
2021/06/02 13:03:07;;;;;;;3.80;3.23;;;;;;;25.87;29.60;96207.34;5005373;28;20511;-93
2021/06/02 13:05:34;;;;;;;3.93;2.50;;;;;;;26.06;29.32;96216.84;5004196;28;20480;-92
2021/06/02 13:08:08;;;;;;;4.10;2.70;;;;;;;26.25;28.58;96218.75;5007927;28;20453;-92
2021/06/02 13:10:37;;;;;;;3.47;2.40;;;;;;;26.31;28.42;96210.63;5005650;28;20571;-92
2021/06/02 13:13:04;;;;;;;3.53;3.23;;;;;;;26.04;29.23;96209.19;5005683;28;20445;-92
2021/06/02 13:15:34;;;;;;;5.43;3.03;;;;;;;25.76;28.80;96213.22;5011132;28;20524;-92
2021/06/02 13:18:01;;;;;;;2.53;2.27;;;;;;;25.54;29.15;96222.28;5015756;28;20445;-92
2021/06/02 13:20:29;;;;;;;3.37;2.00;;;;;;;25.50;29.62;96216.63;5006608;28;20805;-94
2021/06/02 13:23:07;;;;;;;3.03;2.70;;;;;;;25.59;29.27;96211.34;5004265;28;21041;-92
2021/06/02 13:25:33;;;;;;;5.10;2.43;;;;;;;25.89;28.72;96209.44;5004402;28;20560;-93
2021/06/02 13:27:59;;;;;;;3.80;2.47;;;;;;;25.99;28.42;96215.25;5002592;28;20496;-92
2021/06/02 13:30:45;;;;;;;4.80;2.70;;;;;;;26.11;28.36;96210.06;5008002;28;20461;-91
2021/06/02 13:33:12;;;;;;;2.30;2.10;;;;;;;26.26;27.95;96211.16;5009124;28;20436;-92
2021/06/02 13:35:39;;;;;;;4.13;2.60;;;;;;;26.02;29.09;96217.44;5003051;28;20469;-93
2021/06/02 13:38:05;;;;;;;2.70;2.03;;;;;;;26.05;28.35;96220.97;5000520;28;20481;-91
2021/06/02 13:40:34;;;;;;;3.03;2.30;;;;;;;26.02;28.17;96222.25;5002862;28;20445;-91
2021/06/02 13:43:08;;;;;;;10.43;2.70;;;;;;;25.83;28.53;96217.56;5004674;28;20519;-92
2021/06/02 13:46:06;;;;;;;2.83;2.07;;;;;;;25.75;29.13;96211.81;5004758;28;20472;-92
2021/06/02 13:48:35;;;;;;;4.00;2.40;;;;;;;25.73;29.28;96217.97;5004199;28;20461;-93
2021/06/02 13:51:20;;;;;;;3.57;2.53;;;;;;;25.89;28.96;96223.28;5002270;28;20520;-93
2021/06/02 13:54:17;;;;;;;5.20;2.37;;;;;;;26.21;28.29;96207.59;5001778;28;20834;-93
2021/06/02 13:59:47;;;;;;;6.30;2.67;;;;;;;26.23;28.43;96221.47;4972966;28;20792;-91
2021/06/02 14:02:16;;;;;;;3.47;2.73;;;;;;;25.99;28.77;96206.97;5007484;28;20483;-90
2021/06/02 14:22:45;;;;;;;2.43;2.20;;;;;;;26.31;28.04;96216.19;5033812;28;20545;-92
2021/06/02 14:25:16;;;;;;;6.13;2.60;;;;;;;26.28;27.81;96217.47;5023258;28;20452;-94
2021/06/02 14:27:42;;;;;;;1.97;1.87;;;;;;;26.24;27.69;96214.59;5009350;28;20432;-94
2021/06/02 14:30:28;;;;;;;2.37;2.17;;;;;;;26.13;28.40;96212.88;5010233;28;20516;-92
2021/06/02 14:32:56;;;;;;;2.77;2.30;;;;;;;26.30;27.77;96223.06;5005326;28;20445;-91
2021/06/02 14:35:23;;;;;;;4.47;3.00;;;;;;;26.32;27.81;96220.34;4986396;28;20480;-92
2021/06/02 14:37:50;;;;;;;2.63;2.20;;;;;;;26.32;27.64;96222.41;5005852;28;20480;-91
2021/06/02 14:40:16;;;;;;;2.37;1.93;;;;;;;26.37;27.85;96215.63;5007328;28;20468;-91
2021/06/02 14:42:43;;;;;;;2.40;2.20;;;;;;;26.45;28.56;96222.06;5013308;28;20453;-92
2021/06/02 14:45:10;;;;;;;2.63;2.43;;;;;;;26.47;27.29;96215.91;5009276;28;20458;-91
2021/06/02 14:47:36;;;;;;;2.87;2.37;;;;;;;26.22;28.08;96219.38;5013040;28;20628;-94
2021/06/02 14:50:05;;;;;;;3.30;1.93;;;;;;;26.32;27.87;96220.34;5011988;28;20508;-93
2021/06/02 14:52:33;;;;;;;3.50;2.70;;;;;;;26.22;28.17;96228.34;5006471;28;20505;-91
2021/06/02 14:55:00;;;;;;;4.13;2.00;;;;;;;26.30;27.97;96217.53;5004275;28;20563;-91
2021/06/02 14:57:26;;;;;;;4.03;2.30;;;;;;;26.43;27.91;96224.78;5014161;28;20471;-90
2021/06/02 14:59:52;;;;;;;2.63;2.07;;;;;;;26.45;28.22;96229.66;5019631;28;20441;-91
2021/06/02 15:02:18;;;;;;;3.37;3.00;;;;;;;26.39;28.50;96232.28;5019664;28;20450;-91
2021/06/02 15:05:02;;;;;;;7.20;3.30;;;;;;;26.41;27.71;96219.19;5012325;28;20484;-91
2021/06/02 15:07:29;;;;;;;2.60;2.40;;;;;;;26.47;28.10;96222.13;5007317;28;20418;-91
2021/06/02 15:09:55;;;;;;;6.40;2.73;;;;;;;26.49;27.83;96227.00;5015215;28;20556;-93
2021/06/02 15:12:23;;;;;;;4.17;2.70;;;;;;;26.55;27.65;96213.31;5013720;28;20448;-93
2021/06/02 15:14:50;;;;;;;4.30;2.33;;;;;;;26.52;27.45;96223.66;5012043;28;20478;-93
2021/06/02 15:17:16;;;;;;;2.80;2.27;;;;;;;26.46;28.14;96223.50;5011530;28;20456;-92
2021/06/02 15:20:04;;;;;;;2.77;2.27;;;;;;;26.39;28.12;96205.31;5010886;28;20551;-91
2021/06/02 15:22:31;;;;;;;3.33;2.10;;;;;;;26.57;28.44;96213.38;5006387;28;20561;-93
2021/06/02 15:24:57;;;;;;;5.30;2.50;;;;;;;26.57;27.78;96205.78;5012744;28;20461;-95
2021/06/02 15:27:26;;;;;;;2.90;2.43;;;;;;;26.14;28.26;96217.06;5011060;28;20456;-91
2021/06/02 15:29:55;;;;;;;3.10;2.20;;;;;;;26.00;28.84;96205.63;5010917;28;20472;-92
2021/06/02 15:32:23;;;;;;;3.17;2.50;;;;;;;26.21;28.82;96196.53;5007954;28;20441;-92
2021/06/02 15:34:50;;;;;;;2.30;2.10;;;;;;;26.27;28.80;96199.47;5004654;28;20480;-93
2021/06/02 15:37:19;;;;;;;3.03;2.53;;;;;;;26.46;28.72;96200.63;5009859;28;20551;-92
2021/06/02 15:39:46;;;;;;;4.20;2.20;;;;;;;26.54;28.27;96211.91;5009594;28;20452;-94
2021/06/02 15:42:14;;;;;;;8.17;2.77;;;;;;;26.56;27.92;96204.34;5010588;28;20457;-94
2021/06/02 15:48:01;;;;;;;2.60;2.00;;;;;;;26.42;28.04;96192.94;5011614;28;20497;-94
2021/06/02 15:50:29;;;;;;;2.30;2.10;;;;;;;26.36;28.22;96192.78;5009738;28;20541;-92
2021/06/02 15:52:57;;;;;;;2.83;2.50;;;;;;;26.34;28.57;96189.97;5013419;28;20437;-91
2021/06/02 15:55:25;;;;;;;3.00;2.40;;;;;;;26.35;28.31;96187.88;5006061;28;20465;-93
2021/06/02 15:57:54;;;;;;;2.07;1.87;;;;;;;25.91;29.19;96184.59;5005530;28;20477;-94
2021/06/02 16:00:22;;;;;;;2.90;2.00;;;;;;;26.03;28.86;96182.88;5005358;28;20453;-94
2021/06/02 16:02:48;;;;;;;3.57;1.77;;;;;;;25.85;29.08;96187.19;5008957;28;20445;-93
2021/06/02 16:05:19;;;;;;;2.37;2.17;;;;;;;25.76;28.62;96189.03;5009849;28;20469;-94
2021/06/02 16:07:46;;;;;;;2.50;2.30;;;;;;;25.93;28.65;96182.63;5009335;28;20414;-93
2021/06/02 16:10:13;;;;;;;3.13;2.10;;;;;;;26.20;28.24;96197.16;5013744;28;20508;-93
2021/06/02 16:12:40;;;;;;;2.43;2.23;;;;;;;26.30;28.46;96197.44;5016417;28;20441;-92
2021/06/02 16:15:11;;;;;;;3.73;2.33;;;;;;;26.22;29.15;96205.53;5014836;28;20565;-94
2021/06/02 16:17:38;;;;;;;3.03;2.67;;;;;;;25.84;29.13;96202.41;5008804;28;20441;-94
2021/06/02 16:20:04;;;;;;;2.60;2.03;;;;;;;26.02;29.56;96200.13;5005932;28;20445;-94
2021/06/02 16:23:09;;;;;;;2.07;1.87;;;;;;;26.21;28.85;96202.06;5005051;28;20544;-92
2021/06/02 16:28:18;;;;;;;2.50;2.30;;;;;;;25.93;28.59;96204.75;4999234;28;20455;-94
2021/06/02 16:30:45;;;;;;;2.37;2.17;;;;;;;26.10;28.41;96203.81;5007889;28;20605;-94
2021/06/02 16:33:11;;;;;;;7.20;2.23;;;;;;;26.06;29.04;96206.47;5006706;28;20465;-94
2021/06/02 16:41:29;;;;;;;3.30;2.40;;;;;;;25.74;28.91;96207.63;4981885;28;20447;-92
2021/06/02 16:43:57;;;;;;;4.77;2.53;;;;;;;25.94;29.15;96208.19;5001762;28;20539;-92
2021/06/02 16:46:23;;;;;;;3.60;1.87;;;;;;;26.01;28.90;96204.25;5001827;28;20441;-92
2021/06/02 16:48:49;;;;;;;4.70;3.63;;;;;;;26.18;28.86;96214.44;5001573;28;20481;-91
2021/06/02 16:51:20;;;;;;;5.67;2.77;;;;;;;26.29;28.52;96207.81;5002148;28;20955;-93
2021/06/02 16:53:48;;;;;;;4.27;2.57;;;;;;;26.30;28.46;96220.28;5006352;28;20462;-93
2021/06/02 16:56:15;;;;;;;3.87;3.57;;;;;;;26.27;29.10;96221.59;5004495;28;20484;-94
2021/06/02 16:58:42;;;;;;;10.70;3.17;;;;;;;26.22;28.76;96224.91;5005085;28;20440;-94
2021/06/02 17:01:11;;;;;;;6.63;2.57;;;;;;;26.21;28.44;96221.44;5002861;28;20449;-92
2021/06/02 17:03:37;;;;;;;5.17;2.73;;;;;;;26.29;28.27;96227.19;5005176;28;20453;-94
2021/06/02 17:06:05;;;;;;;4.03;2.70;;;;;;;26.38;28.44;96220.50;5004557;28;20437;-93
2021/06/02 17:08:32;;;;;;;3.60;2.17;;;;;;;26.44;28.59;96233.78;5003559;28;20472;-91
2021/06/02 17:11:00;;;;;;;4.80;1.90;;;;;;;26.21;28.30;96229.72;5004699;28;20516;-93
2021/06/02 17:13:26;;;;;;;3.40;2.30;;;;;;;26.25;28.57;96227.06;5014233;28;20464;-91